createdAt,value
2018-03-14T00:00:03.181Z,1000.24
2018-03-14T00:00:43.679Z,1000.26
2018-03-14T00:01:24.175Z,1000.24
2018-03-14T00:02:04.688Z,1000.27
2018-03-14T00:02:45.176Z,1000.28
2018-03-14T00:03:25.693Z,1000.24
2018-03-14T00:04:06.185Z,1000.23
2018-03-14T00:04:46.713Z,1000.29
2018-03-14T00:05:27.232Z,1000.26
2018-03-14T00:06:07.752Z,1000.28
2018-03-14T00:06:48.257Z,1000.28
2018-03-14T00:07:28.771Z,1000.24
2018-03-14T00:08:09.252Z,1000.24
2018-03-14T00:08:49.779Z,1000.34
2018-03-14T00:09:30.296Z,1000.3
2018-03-14T00:10:10.821Z,1000.31
2018-03-14T00:10:51.323Z,1000.34
2018-03-14T00:11:31.833Z,1000.35
2018-03-14T00:12:12.358Z,1000.33
2018-03-14T00:12:52.881Z,1000.34
2018-03-14T00:13:33.389Z,1000.37
2018-03-14T00:14:13.905Z,1000.33
2018-03-14T00:14:54.411Z,1000.36
2018-03-14T00:15:34.909Z,1000.39
2018-03-14T00:16:15.399Z,1000.37
2018-03-14T00:16:55.940Z,1000.37
2018-03-14T00:17:36.443Z,1000.38
2018-03-14T00:18:16.943Z,1000.36
2018-03-14T00:18:57.456Z,1000.33
2018-03-14T00:19:37.976Z,1000.38
2018-03-14T00:20:18.512Z,1000.38
2018-03-14T00:20:59.036Z,1000.39
2018-03-14T00:21:39.547Z,1000.4
2018-03-14T00:22:20.062Z,1000.39
2018-03-14T00:23:00.548Z,1000.39
2018-03-14T00:23:41.054Z,1000.44
2018-03-14T00:24:21.536Z,1000.41
2018-03-14T00:25:02.046Z,1000.38
2018-03-14T00:25:42.534Z,1000.39
2018-03-14T00:26:23.046Z,1000.43
2018-03-14T00:27:03.559Z,1000.38
2018-03-14T00:27:44.070Z,1000.41
2018-03-14T00:28:24.587Z,1000.42
2018-03-14T00:29:05.080Z,1000.39
2018-03-14T00:29:45.610Z,1000.41
2018-03-14T00:30:26.137Z,1000.42
2018-03-14T00:31:06.665Z,1000.44
2018-03-14T00:31:47.174Z,1000.4
2018-03-14T00:32:27.674Z,1000.41
2018-03-14T00:33:08.189Z,1000.44
2018-03-14T00:33:48.706Z,1000.46
2018-03-14T00:34:29.235Z,1000.47
2018-03-14T00:35:09.751Z,1000.43
2018-03-14T00:35:50.263Z,1000.47
2018-03-14T00:36:30.786Z,1000.45
2018-03-14T00:37:11.290Z,1000.46
2018-03-14T00:37:51.775Z,1000.49
2018-03-14T00:38:32.290Z,1000.48
2018-03-14T00:39:12.802Z,1000.44
2018-03-14T00:39:53.322Z,1000.48
2018-03-14T00:40:33.834Z,1000.46
2018-03-14T00:41:14.353Z,1000.45
2018-03-14T00:41:54.868Z,1000.47
2018-03-14T00:42:35.388Z,1000.5
2018-03-14T00:43:15.899Z,1000.49
2018-03-14T00:43:56.412Z,1000.51
2018-03-14T00:44:36.928Z,1000.51
2018-03-14T00:45:17.437Z,1000.5
2018-03-14T00:45:57.953Z,1000.52
2018-03-14T00:46:38.471Z,1000.49
2018-03-14T00:47:18.985Z,1000.49
2018-03-14T00:47:59.507Z,1000.49
2018-03-14T00:48:40.025Z,1000.5
2018-03-14T00:49:20.543Z,1000.5
2018-03-14T00:50:01.038Z,1000.51
2018-03-14T00:50:41.562Z,1000.5
2018-03-14T00:51:22.074Z,1000.56
2018-03-14T00:52:02.580Z,1000.56
2018-03-14T00:52:43.096Z,1000.53
2018-03-14T00:53:23.603Z,1000.56
2018-03-14T00:54:04.153Z,1000.58
2018-03-14T00:54:44.638Z,1000.54
2018-03-14T00:55:25.149Z,1000.56
2018-03-14T00:56:05.690Z,1000.58
2018-03-14T00:56:46.200Z,1000.56
2018-03-14T00:57:26.716Z,1000.54
2018-03-14T00:58:07.229Z,1000.58
2018-03-14T00:58:47.728Z,1000.55
2018-03-14T00:59:28.237Z,1000.56
2018-03-14T01:00:08.757Z,1000.54
2018-03-14T01:00:49.272Z,1000.54
2018-03-14T01:01:29.790Z,1000.58
2018-03-14T01:02:10.300Z,1000.58
2018-03-14T01:02:50.818Z,1000.61
2018-03-14T01:03:31.327Z,1000.58
2018-03-14T01:04:11.844Z,1000.59
2018-03-14T01:04:52.371Z,1000.59
2018-03-14T01:05:32.912Z,1000.5
2018-03-14T01:06:13.421Z,1000.56
2018-03-14T01:06:53.945Z,1000.58
2018-03-14T01:07:34.461Z,1000.59
2018-03-14T01:08:14.969Z,1000.53
2018-03-14T01:08:55.440Z,1000.53
2018-03-14T01:09:35.967Z,1000.57
2018-03-14T01:10:16.492Z,1000.54
2018-03-14T01:10:56.995Z,1000.6
2018-03-14T01:11:37.500Z,1000.56
2018-03-14T01:12:18.004Z,1000.55
2018-03-14T01:12:58.530Z,1000.53
2018-03-14T01:13:39.042Z,1000.52
2018-03-14T01:14:19.528Z,1000.52
2018-03-14T01:15:00.022Z,1000.52
2018-03-14T01:15:40.517Z,1000.53
2018-03-14T01:16:21.056Z,1000.53
2018-03-14T01:17:01.580Z,1000.51
2018-03-14T01:17:42.084Z,1000.52
2018-03-14T01:18:22.594Z,1000.48
2018-03-14T01:19:03.105Z,1000.48
2018-03-14T01:19:43.602Z,1000.53
2018-03-14T01:20:24.090Z,1000.56
2018-03-14T01:21:04.611Z,1000.49
2018-03-14T01:21:45.122Z,1000.51
2018-03-14T01:22:25.632Z,1000.53
2018-03-14T01:23:06.112Z,1000.49
2018-03-14T01:23:46.672Z,1000.49
2018-03-14T01:24:27.125Z,1000.51
2018-03-14T01:25:07.630Z,1000.49
2018-03-14T01:25:48.126Z,1000.49
2018-03-14T01:26:28.634Z,1000.5
2018-03-14T01:27:09.134Z,1000.52
2018-03-14T01:27:49.660Z,1000.46
2018-03-14T01:28:30.160Z,1000.49
2018-03-14T01:29:10.641Z,1000.51
2018-03-14T01:29:51.135Z,1000.49
2018-03-14T01:30:31.618Z,1000.48
2018-03-14T01:31:12.154Z,1000.48
2018-03-14T01:31:52.611Z,1000.46
2018-03-14T01:32:33.138Z,1000.47
2018-03-14T01:33:13.630Z,1000.45
2018-03-14T01:33:54.091Z,1000.45
2018-03-14T01:34:34.600Z,1000.48
2018-03-14T01:35:15.092Z,1000.43
2018-03-14T01:35:55.582Z,1000.41
2018-03-14T01:36:36.076Z,1000.39
2018-03-14T01:37:16.572Z,1000.41
2018-03-14T01:37:57.072Z,1000.36
2018-03-14T01:38:37.570Z,1000.43
2018-03-14T01:39:18.067Z,1000.38
2018-03-14T01:39:58.568Z,1000.43
2018-03-14T01:40:39.076Z,1000.42
2018-03-14T01:41:19.651Z,1000.39
2018-03-14T01:42:00.099Z,1000.43
2018-03-14T01:42:40.613Z,1000.44
2018-03-14T01:43:21.109Z,1000.41
2018-03-14T01:44:01.609Z,1000.47
2018-03-14T01:44:42.130Z,1000.47
2018-03-14T01:45:22.663Z,1000.41
2018-03-14T01:46:03.190Z,1000.4
2018-03-14T01:46:43.688Z,1000.45
2018-03-14T01:47:24.227Z,1000.47
2018-03-14T01:48:04.740Z,1000.46
2018-03-14T01:48:45.245Z,1000.49
2018-03-14T01:49:25.774Z,1000.42
2018-03-14T01:50:06.296Z,1000.48
2018-03-14T01:50:46.807Z,1000.5
2018-03-14T01:51:27.300Z,1000.51
2018-03-14T01:52:07.821Z,1000.48
2018-03-14T01:52:48.330Z,1000.53
2018-03-14T01:53:28.847Z,1000.48
2018-03-14T01:54:09.349Z,1000.52
2018-03-14T01:54:49.868Z,1000.53
2018-03-14T01:55:30.400Z,1000.53
2018-03-14T01:56:10.920Z,1000.57
2018-03-14T01:56:51.447Z,1000.55
2018-03-14T01:57:31.958Z,1000.56
2018-03-14T01:58:12.471Z,1000.59
2018-03-14T01:58:52.982Z,1000.57
2018-03-14T01:59:33.493Z,1000.62
2018-03-14T02:00:14.004Z,1000.63
2018-03-14T02:00:54.541Z,1000.6
2018-03-14T02:01:35.050Z,1000.59
2018-03-14T02:02:15.572Z,1000.61
2018-03-14T02:02:56.084Z,1000.61
2018-03-14T02:03:36.601Z,1000.58
2018-03-14T02:04:17.113Z,1000.62
2018-03-14T02:04:57.640Z,1000.6
2018-03-14T02:05:38.137Z,1000.57
2018-03-14T02:06:18.658Z,1000.58
2018-03-14T02:06:59.183Z,1000.57
2018-03-14T02:07:39.710Z,1000.58
2018-03-14T02:08:20.216Z,1000.56
2018-03-14T02:09:00.736Z,1000.53
2018-03-14T02:09:41.248Z,1000.55
2018-03-14T02:10:21.763Z,1000.56
2018-03-14T02:11:02.274Z,1000.54
2018-03-14T02:11:42.794Z,1000.5
2018-03-14T02:12:23.315Z,1000.49
2018-03-14T02:13:03.815Z,1000.49
2018-03-14T02:13:44.320Z,1000.53
2018-03-14T02:14:24.848Z,1000.5
2018-03-14T02:15:05.385Z,1000.53
2018-03-14T02:15:45.896Z,1000.5
2018-03-14T02:16:26.416Z,1000.5
2018-03-14T02:17:06.930Z,1000.56
2018-03-14T02:17:47.449Z,1000.53
2018-03-14T02:18:27.963Z,1000.49
2018-03-14T02:19:08.481Z,1000.55
2018-03-14T02:19:48.990Z,1000.52
2018-03-14T02:20:29.508Z,1000.59
2018-03-14T02:21:10.024Z,1000.56
2018-03-14T02:21:50.536Z,1000.57
2018-03-14T02:22:31.059Z,1000.6
2018-03-14T02:23:11.613Z,1000.59
2018-03-14T02:23:52.136Z,1000.62
2018-03-14T02:24:32.645Z,1000.6
2018-03-14T02:25:13.167Z,1000.6
2018-03-14T02:25:53.682Z,1000.59
2018-03-14T02:26:34.189Z,1000.6
2018-03-14T02:27:14.708Z,1000.64
2018-03-14T02:27:55.232Z,1000.64
2018-03-14T02:28:35.755Z,1000.61
2018-03-14T02:29:16.269Z,1000.62
2018-03-14T02:29:56.788Z,1000.6
2018-03-14T02:30:37.301Z,1000.62
2018-03-14T02:31:17.816Z,1000.6
2018-03-14T02:31:58.332Z,1000.6
2018-03-14T02:32:38.854Z,1000.61
2018-03-14T02:33:19.383Z,1000.64
2018-03-14T02:33:59.883Z,1000.59
2018-03-14T02:34:40.391Z,1000.63
2018-03-14T02:35:20.913Z,1000.61
2018-03-14T02:36:01.433Z,1000.7
2018-03-14T02:36:41.946Z,1000.63
2018-03-14T02:37:22.481Z,1000.61
2018-03-14T02:38:02.996Z,1000.64
2018-03-14T02:38:43.518Z,1000.65
2018-03-14T02:39:24.032Z,1000.66
2018-03-14T02:40:04.546Z,1000.65
2018-03-14T02:40:45.057Z,1000.64
2018-03-14T02:41:25.576Z,1000.65
2018-03-14T02:42:06.091Z,1000.6
2018-03-14T02:42:46.613Z,1000.63
2018-03-14T02:43:27.128Z,1000.63
2018-03-14T02:44:07.626Z,1000.63
2018-03-14T02:44:48.131Z,1000.6
2018-03-14T02:45:28.653Z,1000.59
2018-03-14T02:46:09.174Z,1000.61
2018-03-14T02:46:49.705Z,1000.62
2018-03-14T02:47:30.213Z,1000.64
2018-03-14T02:48:10.753Z,1000.63
2018-03-14T02:48:51.259Z,1000.61
2018-03-14T02:49:31.773Z,1000.61
2018-03-14T02:50:12.295Z,1000.63
2018-03-14T02:50:52.807Z,1000.64
2018-03-14T02:51:33.326Z,1000.61
2018-03-14T02:52:13.854Z,1000.66
2018-03-14T02:52:54.358Z,1000.68
2018-03-14T02:53:34.885Z,1000.66
2018-03-14T02:54:15.408Z,1000.67
2018-03-14T02:54:55.924Z,1000.67
2018-03-14T02:55:36.428Z,1000.64
2018-03-14T02:56:16.945Z,1000.68
2018-03-14T02:56:57.459Z,1000.66
2018-03-14T02:57:37.976Z,1000.68
2018-03-14T02:58:18.500Z,1000.69
2018-03-14T02:58:59.005Z,1000.72
2018-03-14T02:59:39.523Z,1000.73
2018-03-14T03:00:20.034Z,1000.74
2018-03-14T03:01:00.549Z,1000.7
2018-03-14T03:01:41.061Z,1000.69
2018-03-14T03:02:21.579Z,1000.7
2018-03-14T03:03:02.110Z,1000.73
2018-03-14T03:03:42.625Z,1000.68
2018-03-14T03:04:23.133Z,1000.73
2018-03-14T03:05:03.658Z,1000.71
2018-03-14T03:05:44.181Z,1000.73
2018-03-14T03:06:24.692Z,1000.66
2018-03-14T03:07:05.214Z,1000.66
2018-03-14T03:07:45.723Z,1000.66
2018-03-14T03:08:26.262Z,1000.67
2018-03-14T03:09:06.777Z,1000.67
2018-03-14T03:09:47.286Z,1000.67
2018-03-14T03:10:27.797Z,1000.66
2018-03-14T03:11:08.312Z,1000.63
2018-03-14T03:11:48.838Z,1000.62
2018-03-14T03:12:29.358Z,1000.63
2018-03-14T03:13:09.869Z,1000.63
2018-03-14T03:13:50.385Z,1000.59
2018-03-14T03:14:30.898Z,1000.66
2018-03-14T03:15:11.482Z,1000.62
2018-03-14T03:15:51.942Z,1000.63
2018-03-14T03:16:32.454Z,1000.6
2018-03-14T03:17:12.976Z,1000.64
2018-03-14T03:17:53.492Z,1000.65
2018-03-14T03:18:34.010Z,1000.65
2018-03-14T03:19:14.532Z,1000.63
2018-03-14T03:19:55.042Z,1000.63
2018-03-14T03:20:35.551Z,1000.68
2018-03-14T03:21:16.077Z,1000.65
2018-03-14T03:21:56.595Z,1000.66
2018-03-14T03:22:37.114Z,1000.67
2018-03-14T03:23:17.622Z,1000.66
2018-03-14T03:23:58.133Z,1000.67
2018-03-14T03:24:38.666Z,1000.69
2018-03-14T03:25:19.161Z,1000.7
2018-03-14T03:25:59.669Z,1000.69
2018-03-14T03:26:40.175Z,1000.68
2018-03-14T03:27:20.677Z,1000.75
2018-03-14T03:28:01.184Z,1000.71
2018-03-14T03:28:41.699Z,1000.73
2018-03-14T03:29:22.194Z,1000.73
2018-03-14T03:30:02.766Z,1000.74
2018-03-14T03:30:43.300Z,1000.75
2018-03-14T03:31:23.775Z,1000.79
2018-03-14T03:32:04.261Z,1000.75
2018-03-14T03:32:44.777Z,1000.78
2018-03-14T03:33:25.263Z,1000.74
2018-03-14T03:34:05.776Z,1000.79
2018-03-14T03:34:46.271Z,1000.77
2018-03-14T03:35:26.778Z,1000.71
2018-03-14T03:36:07.282Z,1000.76
2018-03-14T03:36:47.786Z,1000.73
2018-03-14T03:37:28.323Z,1000.79
2018-03-14T03:38:08.830Z,1000.77
2018-03-14T03:38:49.336Z,1000.78
2018-03-14T03:39:29.849Z,1000.8
2018-03-14T03:40:10.443Z,1000.71
2018-03-14T03:40:50.954Z,1000.79
2018-03-14T03:41:31.469Z,1000.77
2018-03-14T03:42:11.963Z,1000.73
2018-03-14T03:42:52.484Z,1000.78
2018-03-14T03:43:32.994Z,1000.78
2018-03-14T03:44:13.510Z,1000.78
2018-03-14T03:44:54.028Z,1000.81
2018-03-14T03:45:34.525Z,1000.74
2018-03-14T03:46:15.022Z,1000.73
2018-03-14T03:46:55.532Z,1000.78
2018-03-14T03:47:36.031Z,1000.78
2018-03-14T03:48:16.544Z,1000.76
2018-03-14T03:48:57.059Z,1000.76
2018-03-14T03:49:37.564Z,1000.78
2018-03-14T03:50:18.061Z,1000.77
2018-03-14T03:50:58.582Z,1000.74
2018-03-14T03:51:39.092Z,1000.77
2018-03-14T03:52:19.616Z,1000.81
2018-03-14T03:53:00.120Z,1000.79
2018-03-14T03:53:40.695Z,1000.8
2018-03-14T03:54:21.142Z,1000.84
2018-03-14T03:55:01.651Z,1000.82
2018-03-14T03:55:42.154Z,1000.86
2018-03-14T03:56:22.653Z,1000.78
2018-03-14T03:57:03.167Z,1000.84
2018-03-14T03:57:43.678Z,1000.78
2018-03-14T03:58:24.178Z,1000.79
2018-03-14T03:59:04.706Z,1000.78
2018-03-14T03:59:45.238Z,1000.82
2018-03-14T04:00:25.745Z,1000.8
2018-03-14T04:01:06.258Z,1000.82
2018-03-14T04:01:46.762Z,1000.8
2018-03-14T04:02:27.281Z,1000.8
2018-03-14T04:03:07.777Z,1000.77
2018-03-14T04:03:48.306Z,1000.73
2018-03-14T04:04:28.807Z,1000.73
2018-03-14T04:05:09.320Z,1000.75
2018-03-14T04:05:49.828Z,1000.72
2018-03-14T04:06:30.326Z,1000.76
2018-03-14T04:07:10.857Z,1000.74
2018-03-14T04:07:51.357Z,1000.78
2018-03-14T04:08:31.883Z,1000.76
2018-03-14T04:09:12.399Z,1000.76
2018-03-14T04:09:52.912Z,1000.76
2018-03-14T04:10:33.408Z,1000.75
2018-03-14T04:11:13.903Z,1000.75
2018-03-14T04:11:54.400Z,1000.75
2018-03-14T04:12:34.920Z,1000.76
2018-03-14T04:13:15.414Z,1000.77
2018-03-14T04:13:55.909Z,1000.78
2018-03-14T04:14:36.449Z,1000.76
2018-03-14T04:15:16.918Z,1000.75
2018-03-14T04:15:57.422Z,1000.78
2018-03-14T04:16:37.916Z,1000.79
2018-03-14T04:17:18.443Z,1000.79
2018-03-14T04:17:58.932Z,1000.81
2018-03-14T04:18:39.438Z,1000.78
2018-03-14T04:19:19.952Z,1000.78
2018-03-14T04:20:00.466Z,1000.76
2018-03-14T04:20:40.977Z,1000.76
2018-03-14T04:21:21.495Z,1000.73
2018-03-14T04:22:01.997Z,1000.77
2018-03-14T04:22:42.497Z,1000.77
2018-03-14T04:23:23.001Z,1000.8
2018-03-14T04:24:03.517Z,1000.81
2018-03-14T04:24:44.025Z,1000.77
2018-03-14T04:25:24.544Z,1000.79
2018-03-14T04:26:05.043Z,1000.78
2018-03-14T04:26:45.550Z,1000.78
2018-03-14T04:27:26.070Z,1000.76
2018-03-14T04:28:06.585Z,1000.74
2018-03-14T04:28:47.091Z,1000.78
2018-03-14T04:29:27.595Z,1000.77
2018-03-14T04:30:08.106Z,1000.73
2018-03-14T04:30:48.612Z,1000.75
2018-03-14T04:31:29.119Z,1000.75
2018-03-14T04:32:09.626Z,1000.74
2018-03-14T04:32:50.128Z,1000.72
2018-03-14T04:33:30.648Z,1000.71
2018-03-14T04:34:11.141Z,1000.72
2018-03-14T04:34:51.652Z,1000.74
2018-03-14T04:35:32.152Z,1000.76
2018-03-14T04:36:12.669Z,1000.74
2018-03-14T04:36:53.178Z,1000.79
2018-03-14T04:37:33.692Z,1000.75
2018-03-14T04:38:14.199Z,1000.8
2018-03-14T04:38:54.716Z,1000.76
2018-03-14T04:39:35.228Z,1000.76
2018-03-14T04:40:15.752Z,1000.76
2018-03-14T04:40:56.265Z,1000.75
2018-03-14T04:41:36.776Z,1000.78
2018-03-14T04:42:17.292Z,1000.81
2018-03-14T04:42:57.803Z,1000.75
2018-03-14T04:43:38.318Z,1000.81
2018-03-14T04:44:18.844Z,1000.75
2018-03-14T04:44:59.350Z,1000.77
2018-03-14T04:45:39.852Z,1000.77
2018-03-14T04:46:20.383Z,1000.72
2018-03-14T04:47:00.889Z,1000.76
2018-03-14T04:47:41.421Z,1000.77
2018-03-14T04:48:21.933Z,1000.77
2018-03-14T04:49:02.450Z,1000.76
2018-03-14T04:49:42.961Z,1000.78
2018-03-14T04:50:23.489Z,1000.72
2018-03-14T04:51:03.983Z,1000.71
2018-03-14T04:51:44.509Z,1000.74
2018-03-14T04:52:25.021Z,1000.75
2018-03-14T04:53:05.536Z,1000.74
2018-03-14T04:53:46.049Z,1000.71
2018-03-14T04:54:26.566Z,1000.71
2018-03-14T04:55:07.077Z,1000.71
2018-03-14T04:55:47.585Z,1000.71
2018-03-14T04:56:28.098Z,1000.68
2018-03-14T04:57:08.611Z,1000.68
2018-03-14T04:57:49.117Z,1000.69
2018-03-14T04:58:29.627Z,1000.68
2018-03-14T04:59:10.144Z,1000.67
2018-03-14T04:59:50.656Z,1000.69
2018-03-14T05:00:31.172Z,1000.61
2018-03-14T05:01:11.686Z,1000.63
2018-03-14T05:01:52.211Z,1000.6
2018-03-14T05:02:32.741Z,1000.65
2018-03-14T05:03:13.253Z,1000.6
2018-03-14T05:03:53.781Z,1000.63
2018-03-14T05:04:34.288Z,1000.61
2018-03-14T05:05:14.801Z,1000.63
2018-03-14T05:05:55.322Z,1000.66
2018-03-14T05:06:35.835Z,1000.63
2018-03-14T05:07:16.348Z,1000.65
2018-03-14T05:07:56.861Z,1000.62
2018-03-14T05:08:37.380Z,1000.64
2018-03-14T05:09:17.907Z,1000.64
2018-03-14T05:09:58.418Z,1000.67
2018-03-14T05:10:38.950Z,1000.64
2018-03-14T05:11:19.463Z,1000.65
2018-03-14T05:11:59.981Z,1000.68
2018-03-14T05:12:40.485Z,1000.66
2018-03-14T05:13:21.014Z,1000.65
2018-03-14T05:14:01.514Z,1000.64
2018-03-14T05:14:42.037Z,1000.62
2018-03-14T05:15:22.558Z,1000.68
2018-03-14T05:16:03.051Z,1000.7
2018-03-14T05:16:43.567Z,1000.7
2018-03-14T05:17:24.087Z,1000.68
2018-03-14T05:18:04.604Z,1000.71
2018-03-14T05:18:45.113Z,1000.7
2018-03-14T05:19:25.692Z,1000.72
2018-03-14T05:20:06.130Z,1000.66
2018-03-14T05:20:46.645Z,1000.63
2018-03-14T05:21:27.148Z,1000.7
2018-03-14T05:22:07.664Z,1000.65
2018-03-14T05:22:48.180Z,1000.66
2018-03-14T05:23:28.692Z,1000.69
2018-03-14T05:24:09.207Z,1000.65
2018-03-14T05:24:49.728Z,1000.65
2018-03-14T05:25:30.241Z,1000.67
2018-03-14T05:26:10.755Z,1000.68
2018-03-14T05:26:51.260Z,1000.69
2018-03-14T05:27:31.798Z,1000.65
2018-03-14T05:28:12.313Z,1000.63
2018-03-14T05:28:52.825Z,1000.67
2018-03-14T05:29:33.338Z,1000.63
2018-03-14T05:30:13.858Z,1000.64
2018-03-14T05:30:54.373Z,1000.67
2018-03-14T05:31:34.888Z,1000.67
2018-03-14T05:32:15.400Z,1000.69
2018-03-14T05:32:55.971Z,1000.67
2018-03-14T05:33:36.480Z,1000.63
2018-03-14T05:34:17.001Z,1000.72
2018-03-14T05:34:57.517Z,1000.69
2018-03-14T05:35:38.041Z,1000.72
2018-03-14T05:36:19.227Z,1000.68
2018-03-14T05:38:12.382Z,1000.66
2018-03-14T05:38:52.895Z,1000.68
2018-03-14T05:39:33.410Z,1000.65
2018-03-14T05:40:13.921Z,1000.7
2018-03-14T05:40:54.446Z,1000.69
2018-03-14T05:41:34.968Z,1000.7
2018-03-14T05:42:15.494Z,1000.7
2018-03-14T05:42:56.013Z,1000.73
2018-03-14T05:43:36.508Z,1000.72
2018-03-14T05:44:17.029Z,1000.75
2018-03-14T05:44:57.557Z,1000.72
2018-03-14T05:45:38.057Z,1000.73
2018-03-14T05:46:18.580Z,1000.72
2018-03-14T05:46:59.103Z,1000.72
2018-03-14T05:47:39.627Z,1000.73
2018-03-14T05:48:20.153Z,1000.79
2018-03-14T05:49:00.662Z,1000.73
2018-03-14T05:49:41.176Z,1000.78
2018-03-14T05:50:21.718Z,1000.78
2018-03-14T05:51:02.210Z,1000.76
2018-03-14T05:51:42.725Z,1000.78
2018-03-14T05:52:23.237Z,1000.74
2018-03-14T05:53:03.750Z,1000.82
2018-03-14T05:53:44.267Z,1000.79
2018-03-14T05:54:24.775Z,1000.74
2018-03-14T05:55:05.303Z,1000.77
2018-03-14T05:55:45.832Z,1000.79
2018-03-14T05:56:26.345Z,1000.81
2018-03-14T05:57:06.842Z,1000.82
2018-03-14T05:57:47.350Z,1000.79
2018-03-14T05:58:27.884Z,1000.8
2018-03-14T05:59:08.406Z,1000.81
2018-03-14T05:59:48.925Z,1000.78
2018-03-14T06:00:29.441Z,1000.75
2018-03-14T06:01:09.939Z,1000.78
2018-03-14T06:01:50.458Z,1000.8
2018-03-14T06:02:30.967Z,1000.86
2018-03-14T06:03:11.515Z,1000.82
2018-03-14T06:03:52.214Z,1000.83
2018-03-14T06:04:32.819Z,1000.81
2018-03-14T06:05:13.339Z,1000.86
2018-03-14T06:05:53.847Z,1000.85
2018-03-14T06:06:34.360Z,1000.85
2018-03-14T06:07:14.866Z,1000.81
2018-03-14T06:07:55.388Z,1000.85
2018-03-14T06:08:35.916Z,1000.82
2018-03-14T06:09:16.432Z,1000.85
2018-03-14T06:09:56.940Z,1000.81
2018-03-14T06:10:37.444Z,1000.84
2018-03-14T06:11:17.960Z,1000.82
2018-03-14T06:11:58.464Z,1000.79
2018-03-14T06:12:38.971Z,1000.78
2018-03-14T06:13:19.500Z,1000.71
2018-03-14T06:13:59.969Z,1000.74
2018-03-14T06:14:40.510Z,1000.71
2018-03-14T06:15:21.152Z,1000.7
2018-03-14T06:16:01.619Z,1000.74
2018-03-14T06:16:42.115Z,1000.76
2018-03-14T06:17:22.624Z,1000.71
2018-03-14T06:18:03.135Z,1000.71
2018-03-14T06:18:43.635Z,1000.71
2018-03-14T06:19:24.196Z,1000.72
2018-03-14T06:20:04.650Z,1000.75
2018-03-14T06:20:45.143Z,1000.73
2018-03-14T06:21:25.646Z,1000.76
2018-03-14T06:22:06.163Z,1000.75
2018-03-14T06:22:46.687Z,1000.73
2018-03-14T06:23:27.199Z,1000.74
2018-03-14T06:24:07.719Z,1000.76
2018-03-14T06:24:48.236Z,1000.76
2018-03-14T06:25:28.776Z,1000.71
2018-03-14T06:26:09.281Z,1000.73
2018-03-14T06:26:49.785Z,1000.75
2018-03-14T06:27:30.298Z,1000.76
2018-03-14T06:28:10.839Z,1000.76
2018-03-14T06:28:51.338Z,1000.73
2018-03-14T06:29:31.855Z,1000.73
2018-03-14T06:30:12.384Z,1000.75
2018-03-14T06:30:52.922Z,1000.73
2018-03-14T06:31:33.414Z,1000.77
2018-03-14T06:32:13.945Z,1000.78
2018-03-14T06:32:54.461Z,1000.77
2018-03-14T06:33:34.947Z,1000.73
2018-03-14T06:34:15.442Z,1000.77
2018-03-14T06:34:55.934Z,1000.73
2018-03-14T06:35:36.449Z,1000.74
2018-03-14T06:36:16.948Z,1000.75
2018-03-14T06:36:57.455Z,1000.77
2018-03-14T06:37:37.969Z,1000.78
2018-03-14T06:38:18.487Z,1000.81
2018-03-14T06:38:59.018Z,1000.79
2018-03-14T06:39:39.534Z,1000.81
2018-03-14T06:40:20.036Z,1000.79
2018-03-14T06:41:00.531Z,1000.85
2018-03-14T06:41:41.032Z,1000.83
2018-03-14T06:42:21.558Z,1000.86
2018-03-14T06:43:02.038Z,1000.84
2018-03-14T06:43:42.556Z,1000.87
2018-03-14T06:44:23.061Z,1000.86
2018-03-14T06:45:03.574Z,1000.84
2018-03-14T06:45:44.091Z,1000.82
2018-03-14T06:46:24.604Z,1000.85
2018-03-14T06:47:05.100Z,1000.82
2018-03-14T06:47:45.615Z,1000.83
2018-03-14T06:48:26.125Z,1000.77
2018-03-14T06:49:06.631Z,1000.86
2018-03-14T06:49:47.186Z,1000.87
2018-03-14T06:50:27.646Z,1000.85
2018-03-14T06:51:08.186Z,1000.88
2018-03-14T06:51:48.664Z,1000.83
2018-03-14T06:52:29.157Z,1000.87
2018-03-14T06:53:09.669Z,1000.84
2018-03-14T06:53:50.191Z,1000.8
2018-03-14T06:54:30.714Z,1000.87
2018-03-14T06:55:11.225Z,1000.88
2018-03-14T06:55:51.707Z,1000.87
2018-03-14T06:56:32.186Z,1000.85
2018-03-14T06:57:12.684Z,1000.82
2018-03-14T06:57:53.206Z,1000.83
2018-03-14T06:58:33.688Z,1000.84
2018-03-14T06:59:14.183Z,1000.85
2018-03-14T06:59:54.690Z,1000.85
2018-03-14T07:00:35.188Z,1000.87
2018-03-14T07:01:15.671Z,1000.89
2018-03-14T07:01:56.195Z,1000.91
2018-03-14T07:02:36.657Z,1000.88
2018-03-14T07:03:17.141Z,1000.81
2018-03-14T07:03:57.642Z,1000.87
2018-03-14T07:04:38.153Z,1000.84
2018-03-14T07:05:18.657Z,1000.8
2018-03-14T07:05:59.192Z,1000.82
2018-03-14T07:06:39.663Z,1000.87
2018-03-14T07:07:20.163Z,1000.89
2018-03-14T07:08:00.656Z,1000.91
2018-03-14T07:08:41.175Z,1000.86
2018-03-14T07:09:21.694Z,1000.89
2018-03-14T07:10:02.189Z,1000.89
2018-03-14T07:10:42.706Z,1000.96
2018-03-14T07:11:23.190Z,1000.96
2018-03-14T07:12:03.707Z,1000.94
2018-03-14T07:12:44.196Z,1000.95
2018-03-14T07:13:24.716Z,1001.01
2018-03-14T07:14:05.242Z,1000.98
2018-03-14T07:14:45.766Z,1000.96
2018-03-14T07:15:26.268Z,1001.02
2018-03-14T07:16:06.794Z,1000.98
2018-03-14T07:16:47.305Z,1000.98
2018-03-14T07:17:27.888Z,1000.98
2018-03-14T07:18:08.380Z,1000.92
2018-03-14T07:18:48.872Z,1000.97
2018-03-14T07:19:29.357Z,1000.97
2018-03-14T07:20:09.864Z,1000.99
2018-03-14T07:20:50.363Z,1001.02
2018-03-14T07:21:30.843Z,1000.96
2018-03-14T07:22:11.342Z,1001.03
2018-03-14T07:22:51.852Z,1000.99
2018-03-14T07:23:32.410Z,1001.03
2018-03-14T07:24:12.914Z,1001.01
2018-03-14T07:24:53.467Z,1000.99
2018-03-14T07:25:33.934Z,1000.99
2018-03-14T07:26:14.455Z,1001
2018-03-14T07:26:54.974Z,1001.04
2018-03-14T07:27:35.480Z,1000.98
2018-03-14T07:28:15.980Z,1000.97
2018-03-14T07:28:56.506Z,1000.96
2018-03-14T07:29:37.025Z,1000.96
2018-03-14T07:30:17.532Z,1000.98
2018-03-14T07:30:58.035Z,1000.97
2018-03-14T07:31:38.562Z,1000.98
2018-03-14T07:32:19.016Z,1000.97
2018-03-14T07:32:59.511Z,1000.98
2018-03-14T07:33:40.017Z,1000.95
2018-03-14T07:34:20.542Z,1000.99
2018-03-14T07:35:01.055Z,1000.96
2018-03-14T07:35:41.573Z,1001
2018-03-14T07:36:22.079Z,1000.99
2018-03-14T07:37:02.563Z,1000.97
2018-03-14T07:37:43.054Z,1000.99
2018-03-14T07:38:23.590Z,1000.95
2018-03-14T07:39:04.084Z,1001.01
2018-03-14T07:39:44.544Z,1001
2018-03-14T07:40:25.037Z,1001.03
2018-03-14T07:41:05.538Z,1001.05
2018-03-14T07:41:46.096Z,1001.02
2018-03-14T07:42:26.624Z,1001.07
2018-03-14T07:43:07.091Z,1001.13
2018-03-14T07:43:47.623Z,1001.12
2018-03-14T07:44:28.087Z,1001.1
2018-03-14T07:45:08.574Z,1001.14
2018-03-14T07:45:49.201Z,1001.11
2018-03-14T07:46:29.631Z,1001.12
2018-03-14T07:47:10.406Z,1001.14
2018-03-14T07:47:50.883Z,1001.13
2018-03-14T07:48:31.398Z,1001.16
2018-03-14T07:49:11.883Z,1001.12
2018-03-14T07:49:52.448Z,1001.16
2018-03-14T07:50:32.899Z,1001.19
2018-03-14T07:51:13.423Z,1001.14
2018-03-14T07:51:53.929Z,1001.13
2018-03-14T07:52:34.441Z,1001.16
2018-03-14T07:53:14.936Z,1001.16
2018-03-14T07:53:55.450Z,1001.17
2018-03-14T07:54:35.984Z,1001.13
2018-03-14T07:55:16.460Z,1001.12
2018-03-14T07:55:57.306Z,1001.11
2018-03-14T07:56:37.801Z,1001.13
2018-03-14T07:57:18.297Z,1001.12
2018-03-14T07:57:58.870Z,1001.13
2018-03-14T07:58:39.325Z,1001.12
2018-03-14T07:59:19.838Z,1001.11
2018-03-14T08:00:00.335Z,1001.12
2018-03-14T08:00:40.831Z,1001.1
2018-03-14T08:01:21.349Z,1001.08
2018-03-14T08:02:01.845Z,1001.09
2018-03-14T08:02:42.374Z,1001.11
2018-03-14T08:03:22.886Z,1001.12
2018-03-14T08:04:03.395Z,1001.08
2018-03-14T08:04:43.905Z,1001.11
2018-03-14T08:05:24.417Z,1001.08
2018-03-14T08:06:04.879Z,1001.08
2018-03-14T08:06:45.374Z,1001.13
2018-03-14T08:07:25.845Z,1001.13
2018-03-14T08:08:06.337Z,1001.07
2018-03-14T08:08:46.825Z,1001.05
2018-03-14T08:09:27.324Z,1001.09
2018-03-14T08:10:07.825Z,1001.07
2018-03-14T08:10:48.360Z,1001.09
2018-03-14T08:11:28.860Z,1001.06
2018-03-14T08:12:09.372Z,1001.09